Hovedside
METAR-TAF:

METAR-TAF

Lufthavner :

Stavanger lufthavn. Sola

Stavanger, Norge

breddegrad: 58-53N, lengdegrad: 005-38E, høyde over havet: 0 m

Gjeldene værobservasjon

Denne rapporten ble laget for 37 minutter siden, klokken 04:20 UTC
Vind 7 kt fra Nord-nordvest
Temperatur 9°C
Luftfuktighet 76%
Trykk 1010 hPa
Sikt 10 km eller mer
Få skyer i en høyde av 2900 ft, Bygeskyer.
Spredte skyer i en høyde av 2900 ft
regnbyger i nærheten

METAR: ENZV 210420Z 34007KT 9999 VCSH FEW029CB SCT029 09/05 Q1010 TEMPO SHRA

Tid: 06:57 (04:57 UTC)

Varsel

Varsel gyldig fra 21. klokken 00 UTC til 21. klokken 24 UTC
Vind 15 kt fra Nord-nordvest
Sikt 10 km eller mer
Få skyer i en høyde av 2000 ft, Tårnskyer (cumulus).
Brutte skyer i en høyde av 3500 ft
Midlertidig
fra 21. klokken 03 UTC til 21. klokken 18 UTC
Vind 20 kt fra Nord-nordvest med vindkast opp mot 30 kt
Brutte skyer i en høyde av 2000 ft, Bygeskyer.
regnbyger

TAF: ENZV 2100/2124 33015KT 9999 FEW020TCU BKN035 TEMPO 2103/2118 33020G30KT SHRA BKN020CB

Værobservasjoner og værvarsel for over 4000 flyplasser (METAR- og TAF-rapporter).

Tilgjengelige stasjoner er representert av de røde og gule prikkene på kartet.

Hold musepekeren over prikken for å se navnet på stasjonen.

Klikk så for å se værobservasjoner og -varsler.

For å forandre kartet kan du klikke på den grønne knappen med svart kryss for å zoome inn, på den grønne knappen med strek for å zoome ut, eller på de grønne pilene for å se tilstøtende kart.


METAR-TAF: